Departure
Kulusuk Airport
Kulusuk, GL
cloud Weather
- Wind
- 240° / 5 kt
- Visibility
- -
- Ceiling
- CLR
- Temp / Dew
- 4°C / -3°C
- Altimeter
- 29.76 inHg
Obs: 2026-09-06T06:20:00.000Z
Raw METAR
METAR BGKK 060620Z AUTO 24005KT 9999NDV NCD 04/M03 Q1008
local_airport Airport
KUS · BGKK · Kulusuk, GL
Departure
Kulusuk, GL
Obs: 2026-09-06T06:20:00.000Z
METAR BGKK 060620Z AUTO 24005KT 9999NDV NCD 04/M03 Q1008
| Date | Flight | Aircraft | Route | Takeoff | Landing | Duration | Dep Δ |
|---|---|---|---|---|---|---|---|
| 2026-07-25 | ICE102 | 4CC330 | KUS → KEF | Jul 25, 21:35 UTC | Jul 25, 21:55 UTC | 20m | - |
| 2026-07-24 | ICE102 | 4CC4D2 | KUS → KEF | Jul 24, 20:45 UTC | Jul 24, 21:05 UTC | 20m | - |
| 2026-07-23 | ICE102 | 4CC4D2 | KUS → KEF | Jul 23, 21:35 UTC | Jul 23, 21:55 UTC | 20m | - |
| 2026-07-22 | ICE102 | 4CC4D2 | KUS → KEF | Jul 22, 21:20 UTC | Jul 22, 21:45 UTC | 25m | - |
| 2026-07-21 | ICE102 | 4CC330 | KUS → KEF | Jul 21, 22:25 UTC | Jul 21, 22:45 UTC | 20m | - |
| 2026-07-20 | ICE102 | 4CC4D2 | KUS → KEF | Jul 20, 20:45 UTC | Jul 20, 21:10 UTC | 25m | - |
| 2026-07-01 | GRL1720 | 459E4A | KUS → KEF | Jul 1, 12:35 UTC | Jul 1, 13:05 UTC | 30m | - |
| 2026-06-18 | ICE102 | 4CC4D1 | KUS → KEF | Jun 18, 20:20 UTC | Jun 18, 20:40 UTC | 20m | - |
| 2026-06-17 | ICE102 | 4CC331 | KUS → KEF | Jun 17, 20:25 UTC | Jun 17, 20:50 UTC | 25m | - |
| 2026-06-15 | ICE102 | 4CC4D1 | KUS → KEF | Jun 15, 20:34 UTC | Jun 15, 20:59 UTC | 25m | - |
| 2026-06-13 | ICE102 | 4CC330 | KUS → KEF | Jun 13, 21:30 UTC | Jun 13, 21:45 UTC | 15m | - |
| 2026-06-10 | ICE102 | 4CC331 | KUS → KEF | Jun 10, 20:55 UTC | Jun 10, 21:25 UTC | 30m | - |
| 2026-06-10 | GRL1720 | 459E50 | KUS → KEF | Jun 10, 12:50 UTC | Jun 10, 13:20 UTC | 30m | - |
| 2026-06-08 | ICE102 | 4CC4D1 | KUS → KEF | Jun 8, 20:50 UTC | Jun 8, 21:15 UTC | 25m | - |
| 2026-06-06 | ICE102 | 4CC331 | KUS → KEF | Jun 6, 22:10 UTC | Jun 6, 22:34 UTC | 25m | - |
| 2026-06-03 | ICE102 | 4CC330 | KUS → KEF | Jun 3, 21:50 UTC | Jun 3, 22:05 UTC | 15m | - |
| 2026-06-03 | GRL1720 | 459E50 | KUS → KEF | Jun 3, 12:55 UTC | Jun 3, 13:20 UTC | 25m | - |
| 2026-06-01 | ICE102 | 4CC4D1 | KUS → KEF | Jun 1, 20:50 UTC | Jun 1, 21:10 UTC | 20m | - |
| 2026-05-30 | ICE102 | 4CC330 | KUS → KEF | May 30, 14:50 UTC | May 30, 15:15 UTC | 25m | - |
| 2026-05-27 | ICE102 | 4CC330 | KUS → KEF | May 27, 14:05 UTC | May 27, 14:25 UTC | 20m | - |
| 2026-05-27 | GRL1720 | 459E4F | KUS → KEF | May 27, 12:30 UTC | May 27, 12:55 UTC | 25m | - |
| 2026-05-23 | ICE102 | 4CC330 | KUS → KEF | May 23, 14:25 UTC | May 23, 14:45 UTC | 20m | - |
| 2026-05-20 | ICE102 | 4CC330 | KUS → KEF | May 20, 14:05 UTC | May 20, 14:25 UTC | 20m | - |
| 2026-05-20 | GRL1720 | 459E4F | KUS → KEF | May 20, 12:35 UTC | May 20, 13:10 UTC | 35m | - |
| 2026-05-18 | ICE104 | 4CC331 | KUS → KEF | May 18, 18:10 UTC | May 18, 18:50 UTC | 39m | - |
| Date | Flight | Aircraft | Route | Takeoff | Landing | Duration | Arr Δ |
|---|---|---|---|---|---|---|---|
| 2026-07-25 | ICE101 | 4CC330 | KEF → KUS | Jul 25, 17:55 UTC | Jul 25, 18:10 UTC | 15m | - |
| 2026-07-24 | ICE101 | 4CC4D2 | KEF → KUS | Jul 24, 17:45 UTC | Jul 24, 18:15 UTC | 30m | - |
| 2026-07-23 | ICE101 | 4CC4D2 | KEF → KUS | Jul 23, 18:50 UTC | Jul 23, 19:15 UTC | 25m | - |
| 2026-07-22 | ICE101 | 4CC4D2 | KEF → KUS | Jul 22, 18:20 UTC | Jul 22, 18:50 UTC | 30m | - |
| 2026-07-21 | ICE101 | 4CC330 | KEF → KUS | Jul 21, 18:30 UTC | Jul 21, 18:55 UTC | 25m | - |
| 2026-07-20 | ICE101 | 4CC4D2 | KEF → KUS | Jul 20, 17:40 UTC | Jul 20, 18:10 UTC | 30m | - |
| 2026-06-18 | ICE101 | 4CC4D1 | KEF → KUS | Jun 18, 17:25 UTC | Jun 18, 17:45 UTC | 20m | - |
| 2026-06-17 | ICE101 | 4CC331 | KEF → KUS | Jun 17, 17:20 UTC | Jun 17, 17:45 UTC | 25m | - |
| 2026-06-15 | ICE101 | 4CC4D1 | KEF → KUS | Jun 15, 17:40 UTC | Jun 15, 17:59 UTC | 20m | - |
| 2026-06-13 | ICE101 | 4CC330 | KEF → KUS | Jun 13, 17:35 UTC | Jun 13, 17:55 UTC | 20m | - |
| 2026-06-10 | ICE101 | 4CC331 | KEF → KUS | Jun 10, 17:45 UTC | Jun 10, 18:20 UTC | 35m | - |
| 2026-06-08 | ICE101 | 4CC4D1 | KEF → KUS | Jun 8, 17:35 UTC | Jun 8, 18:00 UTC | 25m | - |
| 2026-06-06 | ICE101 | 4CC331 | KEF → KUS | Jun 6, 17:29 UTC | Jun 6, 18:04 UTC | 35m | - |
| 2026-06-03 | ICE101 | 4CC330 | KEF → KUS | Jun 3, 18:00 UTC | Jun 3, 18:15 UTC | 15m | - |
| 2026-06-01 | ICE101 | 4CC4D1 | KEF → KUS | Jun 1, 17:50 UTC | Jun 1, 18:15 UTC | 25m | - |
| 2026-05-30 | ICE101 | 4CC330 | KEF → KUS | May 30, 10:45 UTC | May 30, 11:05 UTC | 20m | - |
| 2026-05-27 | ICE101 | 4CC330 | KEF → KUS | May 27, 10:25 UTC | May 27, 10:55 UTC | 30m | - |
| 2026-05-23 | ICE101 | 4CC330 | KEF → KUS | May 23, 10:55 UTC | May 23, 11:15 UTC | 20m | - |
| 2026-05-20 | ICE101 | 4CC330 | KEF → KUS | May 20, 10:30 UTC | May 20, 10:55 UTC | 25m | - |
| 2026-05-18 | ICE103 | 4CC331 | KEF → KUS | May 18, 14:55 UTC | May 18, 15:35 UTC | 40m | - |
| 2026-05-14 | ICE101 | 4CC331 | KEF → KUS | May 14, 12:05 UTC | May 14, 12:50 UTC | 45m | - |
| 2026-05-09 | ICE101 | 4CC330 | KEF → KUS | May 9, 11:00 UTC | May 9, 11:30 UTC | 30m | - |
| 2026-05-06 | ICE101 | 4CC330 | KEF → KUS | May 6, 10:45 UTC | May 6, 11:05 UTC | 20m | - |
| 2026-05-02 | ICE101 | 4CC330 | KEF → KUS | May 2, 10:35 UTC | May 2, 11:05 UTC | 30m | - |
| 2026-04-29 | GRL1721 | 459E4F | KEF → KUS | Apr 29, 15:20 UTC | Apr 29, 16:00 UTC | 40m | - |